Time;durP1;ratioP1;P1;durP2;ratioP2;P2;SDS_P1;SDS_P2;PMS_P1;PMS_P2;Temp;Humidity;BMP_temperature;BMP_pressure;BME280_temperature;BME280_humidity;BME280_pressure;Samples;Min_cycle;Max_cycle;Signal;HPM_P1;HPM_P2
2023/09/30 00:02:14;;;;;;;9.38;3.80;;;;;;;21.07;46.44;99894.28;5119502;27;20505;-88
2023/09/30 00:04:40;;;;;;;6.88;4.07;;;;;;;21.06;45.86;99900.59;5110730;28;20031;-88
2023/09/30 00:07:06;;;;;;;14.30;3.65;;;;;;;21.37;46.03;99958.75;5120558;27;20050;-89
2023/09/30 00:09:31;;;;;;;4.97;3.15;;;;;;;21.18;45.93;99926.75;5131673;27;20081;-88
2023/09/30 00:11:57;;;;;;;9.88;3.90;;;;;;;21.70;45.61;99991.88;5127464;27;20028;-88
2023/09/30 00:14:23;;;;;;;8.50;4.03;;;;;;;21.21;45.70;99909.59;5111062;28;20023;-89
2023/09/30 00:16:48;;;;;;;5.95;3.28;;;;;;;21.14;45.95;99909.06;5093286;28;20088;-89
2023/09/30 00:19:16;;;;;;;6.88;2.88;;;;;;;21.28;46.48;99946.72;5111150;28;20383;-89
2023/09/30 00:22:11;;;;;;;6.90;3.15;;;;;;;21.25;46.45;99917.38;5110667;28;20525;-91
2023/09/30 00:25:16;;;;;;;6.25;3.78;;;;;;;21.09;45.78;99908.47;5067344;28;20041;-91
2023/09/30 00:27:45;;;;;;;5.20;3.08;;;;;;;20.93;45.91;99895.91;4975276;28;20034;-90
2023/09/30 00:30:10;;;;;;;15.50;3.70;;;;;;;20.88;45.64;99906.03;4988497;28;20046;-87
2023/09/30 00:32:36;;;;;;;8.38;2.58;;;;;;;20.86;45.49;99882.91;4979078;28;20057;-86
2023/09/30 00:35:02;;;;;;;9.75;3.40;;;;;;;21.39;45.01;99969.41;4968982;28;20410;-87
2023/09/30 00:37:28;;;;;;;17.63;3.55;;;;;;;20.84;44.67;99901.78;4976689;28;20053;-87
2023/09/30 00:39:53;;;;;;;7.05;3.15;;;;;;;20.83;44.76;99908.06;4986556;28;20158;-87
2023/09/30 00:42:20;;;;;;;9.15;3.17;;;;;;;20.80;45.38;99889.47;4988638;28;20037;-88
2023/09/30 00:44:46;;;;;;;9.15;3.10;;;;;;;21.19;45.17;99931.13;4988335;28;20512;-88
2023/09/30 00:47:14;;;;;;;11.43;3.33;;;;;;;21.09;45.30;99938.81;4987796;28;20042;-88
2023/09/30 00:49:41;;;;;;;6.95;3.15;;;;;;;20.96;45.48;99907.41;5002025;28;20056;-89
2023/09/30 00:52:07;;;;;;;6.50;2.85;;;;;;;20.86;45.62;99896.31;4991514;28;20416;-89
2023/09/30 00:54:35;;;;;;;5.63;2.97;;;;;;;20.95;45.52;99886.94;5012464;28;20045;-87
2023/09/30 00:57:01;;;;;;;8.15;3.10;;;;;;;21.14;45.76;99921.63;5027392;28;20531;-88
2023/09/30 00:59:31;;;;;;;9.05;3.40;;;;;;;21.41;45.94;99962.13;5025476;28;20033;-88
2023/09/30 01:01:58;;;;;;;5.65;3.00;;;;;;;21.47;45.02;99972.53;5007726;28;20083;-88
2023/09/30 01:04:26;;;;;;;6.55;2.92;;;;;;;21.03;45.40;99911.50;5045966;28;20042;-89
2023/09/30 01:06:52;;;;;;;6.97;3.50;;;;;;;21.51;45.38;99990.22;5089777;28;20557;-90
2023/09/30 01:09:17;;;;;;;5.03;2.65;;;;;;;20.92;45.63;99885.25;5089762;28;20148;-90
2023/09/30 01:11:44;;;;;;;4.28;2.15;;;;;;;20.91;45.89;99910.34;5106163;28;20493;-89
2023/09/30 01:14:30;;;;;;;6.05;2.75;;;;;;;21.22;46.46;99968.50;5131768;27;20031;-90
2023/09/30 01:16:56;;;;;;;5.03;2.38;;;;;;;20.64;46.19;99883.19;5100970;28;20039;-90
2023/09/30 01:19:24;;;;;;;6.43;4.28;;;;;;;20.63;46.13;99893.03;5095933;28;20096;-89
2023/09/30 01:21:58;;;;;;;3.83;2.35;;;;;;;20.84;46.72;99936.63;5125695;27;20038;-90
2023/09/30 01:24:26;;;;;;;5.30;2.40;;;;;;;20.41;46.91;99866.53;5116104;27;20023;-89
2023/09/30 01:26:52;;;;;;;7.13;2.75;;;;;;;20.68;47.32;99919.63;5132929;27;20580;-90
2023/09/30 01:29:18;;;;;;;6.30;3.13;;;;;;;20.53;47.53;99889.13;5116067;27;20158;-90
2023/09/30 01:31:47;;;;;;;5.20;2.85;;;;;;;20.34;48.00;99884.75;5134980;27;20023;-90
2023/09/30 01:34:17;;;;;;;10.65;4.22;;;;;;;20.47;47.74;99927.81;5134851;27;20027;-89
2023/09/30 01:36:44;;;;;;;5.95;2.67;;;;;;;20.25;46.91;99965.56;5134859;27;20125;-89
2023/09/30 01:39:10;;;;;;;4.30;3.05;;;;;;;19.60;46.76;99900.94;5134303;27;20027;-88
2023/09/30 01:41:42;;;;;;;5.93;3.38;;;;;;;19.62;46.37;99889.25;5134518;27;20031;-90
2023/09/30 01:44:13;;;;;;;13.75;3.78;;;;;;;19.95;46.74;99925.13;5116391;27;20337;-89
2023/09/30 01:46:43;;;;;;;6.18;3.05;;;;;;;19.75;47.56;99908.22;5131928;27;20065;-89
2023/09/30 01:49:09;;;;;;;8.07;3.30;;;;;;;19.79;47.63;99927.72;5116130;27;20031;-88
2023/09/30 01:51:35;;;;;;;6.72;3.13;;;;;;;19.73;48.58;100002.94;5116363;27;20050;-89
2023/09/30 01:54:01;;;;;;;12.55;4.10;;;;;;;18.96;48.27;99882.56;5116285;27;20048;-89
2023/09/30 01:56:26;;;;;;;11.30;3.40;;;;;;;19.36;48.43;99941.31;5113566;28;20157;-88
2023/09/30 01:58:52;;;;;;;10.85;4.10;;;;;;;19.21;48.99;99909.97;5128807;27;20026;-88
2023/09/30 02:01:17;;;;;;;5.53;3.45;;;;;;;19.14;49.66;99909.41;5134356;27;20038;-88
2023/09/30 02:03:43;;;;;;;7.53;3.38;;;;;;;19.25;49.14;99907.06;5133662;27;20038;-90
2023/09/30 02:06:08;;;;;;;13.50;4.90;;;;;;;19.32;49.38;99924.56;5133968;27;20031;-89
2023/09/30 02:08:36;;;;;;;6.43;3.35;;;;;;;19.42;49.33;99933.00;5124260;27;20047;-88
2023/09/30 02:11:13;;;;;;;7.97;4.03;;;;;;;19.24;49.84;99917.84;5113281;28;20484;-90
2023/09/30 02:14:16;;;;;;;10.48;3.25;;;;;;;19.02;50.32;99889.44;5095113;28;20036;-91
2023/09/30 02:20:12;;;;;;;10.57;4.03;;;;;;;19.06;51.10;99911.53;5114258;28;20058;-91
2023/09/30 02:22:44;;;;;;;6.20;3.20;;;;;;;19.09;50.77;99896.25;5092798;28;20097;-92
2023/09/30 02:25:58;;;;;;;5.00;3.10;;;;;;;19.12;50.45;99932.63;5092258;28;20024;-91
2023/09/30 02:28:23;;;;;;;15.53;3.87;;;;;;;18.61;51.17;99879.69;5073718;28;20089;-88
2023/09/30 02:30:54;;;;;;;7.57;3.33;;;;;;;18.87;51.20;99911.53;5092456;28;20036;-90
2023/09/30 02:33:22;;;;;;;5.47;3.00;;;;;;;18.76;51.49;99888.78;5092396;28;20035;-90
2023/09/30 02:40:23;;;;;;;7.75;3.67;;;;;;;18.37;51.62;99880.78;5069941;28;20032;-92
2023/09/30 02:43:01;;;;;;;7.70;3.20;;;;;;;18.47;51.73;99902.59;5027184;28;20168;-91
2023/09/30 02:46:00;;;;;;;;;;;;;;;;;;;;;
2023/09/30 02:55:30;;;;;;;7.38;3.97;;;;;;;18.08;53.83;99930.97;4951493;28;20102;-91
2023/09/30 02:57:57;;;;;;;5.70;3.28;;;;;;;18.08;54.06;99910.47;4951617;29;20045;-90
2023/09/30 03:00:26;;;;;;;6.97;4.28;;;;;;;18.04;54.31;99892.88;4951428;29;20051;-90
2023/09/30 03:03:02;;;;;;;5.95;3.28;;;;;;;17.95;54.06;99879.91;4951387;29;20115;-91
2023/09/30 03:05:30;;;;;;;6.60;3.53;;;;;;;18.30;53.87;99938.91;4952885;28;20039;-88
2023/09/30 03:07:56;;;;;;;4.97;2.92;;;;;;;17.95;53.68;99877.25;4951338;29;20031;-89
2023/09/30 03:10:23;;;;;;;11.55;4.30;;;;;;;18.19;53.31;99909.16;4952040;29;20058;-88
2023/09/30 03:12:56;;;;;;;5.90;3.35;;;;;;;18.33;53.18;99941.47;4983395;28;20133;-89
2023/09/30 03:15:22;;;;;;;9.82;2.97;;;;;;;17.88;53.93;99916.66;4976744;28;20120;-88
2023/09/30 03:17:48;;;;;;;5.72;3.55;;;;;;;17.71;54.38;99922.66;5025025;28;20037;-88
2023/09/30 03:20:18;;;;;;;6.95;3.33;;;;;;;17.81;53.85;99916.94;5029194;28;20056;-89
2023/09/30 03:22:46;;;;;;;8.35;3.45;;;;;;;17.72;53.92;99916.41;5039193;28;20170;-89
2023/09/30 03:25:15;;;;;;;8.35;3.55;;;;;;;17.79;53.30;99900.13;5060289;28;20040;-89
2023/09/30 03:27:40;;;;;;;7.20;3.38;;;;;;;17.45;53.70;99888.19;5088635;28;20028;-90
2023/09/30 03:30:08;;;;;;;8.43;2.95;;;;;;;17.59;53.92;99911.63;5093785;28;20619;-89
2023/09/30 03:32:37;;;;;;;10.48;3.72;;;;;;;17.54;53.73;99914.47;5114896;27;20092;-89
2023/09/30 03:35:05;;;;;;;8.00;3.30;;;;;;;17.77;54.04;99929.53;5111820;27;20063;-89
2023/09/30 03:44:26;;;;;;;19.85;3.60;;;;;;;17.52;53.92;99897.69;5116571;27;20577;-90
2023/09/30 03:47:27;;;;;;;;;;;;;;;;;;;;;
2023/09/30 03:49:54;;;;;;;5.00;3.25;;;;;;;17.56;54.25;99883.25;5128114;27;20037;-90
2023/09/30 03:52:48;;;;;;;9.02;3.13;;;;;;;17.61;54.51;99905.31;5131561;27;20034;-91
2023/09/30 03:55:27;;;;;;;6.85;3.72;;;;;;;17.67;54.25;99920.16;5084591;28;20033;-92
2023/09/30 03:57:53;;;;;;;5.53;2.75;;;;;;;17.60;54.91;99930.22;5069232;28;20033;-90
2023/09/30 04:00:21;;;;;;;12.55;3.88;;;;;;;17.24;54.75;99866.78;5084174;28;20515;-91
2023/09/30 04:02:59;;;;;;;;;;;;;;;;;;;;;
2023/09/30 04:05:36;;;;;;;6.85;3.38;;;;;;;17.38;54.15;99905.34;5070576;28;20058;-90
2023/09/30 04:08:33;;;;;;;13.13;4.05;;;;;;;17.28;54.68;99864.84;5068663;28;20130;-90
2023/09/30 04:14:29;;;;;;;10.80;3.97;;;;;;;17.45;54.53;99890.84;5053571;28;20140;-91
2023/09/30 04:16:57;;;;;;;7.70;4.25;;;;;;;17.75;54.50;99936.75;5079984;28;20522;-91
2023/09/30 04:26:46;;;;;;;7.30;4.10;;;;;;;17.35;55.11;99899.22;5047839;28;20119;-91
2023/09/30 04:29:12;;;;;;;5.00;3.03;;;;;;;17.25;54.58;99894.31;4961259;28;20061;-90
2023/09/30 04:31:41;;;;;;;11.80;4.20;;;;;;;17.59;54.84;99946.28;4933775;29;20458;-90
2023/09/30 04:34:07;;;;;;;15.60;3.90;;;;;;;17.62;54.96;99935.50;4949933;29;20097;-90
2023/09/30 04:36:35;;;;;;;7.68;3.45;;;;;;;17.25;54.98;99900.50;4933528;29;20066;-88
2023/09/30 04:39:02;;;;;;;11.90;3.78;;;;;;;17.59;54.88;99983.63;4959750;28;20043;-88
2023/09/30 04:41:29;;;;;;;13.20;3.92;;;;;;;17.43;55.21;99944.22;4969247;28;20046;-88
2023/09/30 04:43:56;;;;;;;15.40;4.45;;;;;;;17.85;55.77;100009.28;4967438;28;20030;-88
2023/09/30 04:46:23;;;;;;;14.73;4.57;;;;;;;17.54;55.64;99941.16;4968372;28;20161;-89
2023/09/30 04:48:51;;;;;;;8.52;4.25;;;;;;;17.35;55.72;99938.34;4959403;28;20069;-90
2023/09/30 04:51:18;;;;;;;9.52;5.38;;;;;;;17.08;56.10;99929.59;4949303;29;20035;-89
2023/09/30 04:53:46;;;;;;;11.02;4.75;;;;;;;17.23;56.40;99961.00;4955041;28;20548;-89
2023/09/30 04:56:12;;;;;;;6.28;3.47;;;;;;;17.10;56.54;99919.75;4949602;29;20100;-89
2023/09/30 04:58:38;;;;;;;7.22;3.92;;;;;;;17.34;56.21;99937.44;4952516;28;20039;-88
2023/09/30 05:01:15;;;;;;;13.57;4.47;;;;;;;17.27;56.33;99917.31;4988616;28;20092;-89
2023/09/30 05:03:40;;;;;;;7.85;3.63;;;;;;;17.63;56.05;99964.78;4990119;28;20100;-87
2023/09/30 05:06:12;;;;;;;7.55;4.35;;;;;;;17.81;55.80;99992.53;5026979;28;20041;-86
2023/09/30 05:08:38;;;;;;;12.50;3.22;;;;;;;17.43;55.82;99941.56;5063347;28;20505;-87
2023/09/30 05:11:08;;;;;;;8.90;3.75;;;;;;;17.53;55.71;99939.41;5069038;28;20021;-93
2023/09/30 05:13:36;;;;;;;14.32;3.63;;;;;;;17.39;55.90;99907.09;5068803;28;20024;-84
2023/09/30 05:16:03;;;;;;;6.65;3.67;;;;;;;17.66;55.34;99935.31;5070388;28;20044;-86
2023/09/30 05:18:29;;;;;;;10.15;3.72;;;;;;;17.94;55.14;99942.22;5068844;28;20398;-87
2023/09/30 05:20:55;;;;;;;7.57;4.28;;;;;;;17.79;55.37;99927.66;5081779;28;20043;-86
2023/09/30 05:23:20;;;;;;;17.42;3.33;;;;;;;17.90;55.21;99935.25;5087296;28;20028;-87
2023/09/30 05:25:46;;;;;;;12.20;4.20;;;;;;;18.47;54.40;100006.78;5087218;28;20039;-89
2023/09/30 05:28:13;;;;;;;10.98;4.13;;;;;;;18.11;54.12;99948.66;5073314;28;20041;-87
2023/09/30 05:30:40;;;;;;;7.18;4.65;;;;;;;18.15;54.80;99951.16;5069039;28;20035;-87
2023/09/30 05:33:06;;;;;;;13.15;3.58;;;;;;;18.38;55.14;99976.88;5068219;28;20549;-86
2023/09/30 05:35:32;;;;;;;8.00;4.13;;;;;;;18.28;55.60;99969.31;5069038;28;20115;-88
2023/09/30 05:37:58;;;;;;;16.48;4.10;;;;;;;18.41;54.85;99931.34;5070299;28;20110;-87
2023/09/30 05:43:15;;;;;;;13.98;3.17;;;;;;;18.86;53.44;99963.25;5045710;28;20045;-86
2023/09/30 05:45:48;;;;;;;22.55;4.07;;;;;;;19.12;51.81;99949.56;5046140;28;20037;-86
2023/09/30 05:48:29;;;;;;;9.32;3.67;;;;;;;19.20;51.48;99940.31;5047683;28;20136;-90
2023/09/30 05:51:01;;;;;;;13.15;3.65;;;;;;;19.79;51.56;100008.88;5030404;28;20124;-88
2023/09/30 05:53:28;;;;;;;6.75;2.85;;;;;;;19.74;51.54;99983.22;5062607;28;20675;-88
2023/09/30 05:55:54;;;;;;;15.95;3.78;;;;;;;20.35;50.57;100019.53;5066240;28;20028;-87
2023/09/30 05:58:19;;;;;;;6.20;4.15;;;;;;;20.30;49.97;99963.53;5067430;28;20058;-87
2023/09/30 06:00:45;;;;;;;22.13;5.18;;;;;;;20.48;48.13;99988.50;5085511;28;20052;-87
2023/09/30 06:03:11;;;;;;;11.48;5.20;;;;;;;20.88;47.89;99973.06;5070543;28;20033;-84
2023/09/30 06:05:40;;;;;;;13.50;4.80;;;;;;;21.42;48.09;100023.75;5070334;28;20036;-85
2023/09/30 06:08:10;;;;;;;15.27;4.72;;;;;;;21.11;47.50;99957.50;5070373;28;20067;-84
2023/09/30 06:10:38;;;;;;;18.27;5.68;;;;;;;21.29;47.19;99958.34;5064156;28;20035;-85
2023/09/30 06:13:04;;;;;;;9.23;5.65;;;;;;;21.77;46.90;99980.69;5070196;28;20045;-84
2023/09/30 06:15:31;;;;;;;10.93;4.93;;;;;;;21.82;46.11;99985.81;5080268;28;20067;-82
2023/09/30 06:17:57;;;;;;;13.00;4.55;;;;;;;21.86;45.83;100007.97;5073539;28;20119;-86
2023/09/30 06:20:26;;;;;;;8.95;3.67;;;;;;;21.70;45.46;99935.50;5070808;28;20121;-87
2023/09/30 06:22:53;;;;;;;12.75;4.97;;;;;;;22.06;46.25;99958.47;5073172;28;20036;-88
2023/09/30 06:25:19;;;;;;;19.48;5.07;;;;;;;22.36;45.17;99966.59;5072528;28;20043;-87
2023/09/30 06:27:45;;;;;;;10.95;3.15;;;;;;;22.60;44.23;99966.94;5075095;28;20444;-87
2023/09/30 06:30:13;;;;;;;5.57;3.22;;;;;;;22.98;44.02;100014.81;5081669;28;20043;-87
2023/09/30 06:32:39;;;;;;;7.32;3.10;;;;;;;22.89;43.16;100023.44;5085115;28;20139;-87
2023/09/30 06:35:06;;;;;;;19.02;4.78;;;;;;;22.12;44.68;99952.75;5082531;28;20036;-87
2023/09/30 06:37:32;;;;;;;13.98;3.78;;;;;;;23.02;43.66;100037.03;5072592;28;20533;-87
2023/09/30 06:39:58;;;;;;;15.82;5.35;;;;;;;23.30;42.93;100000.38;5087079;28;20032;-85
2023/09/30 06:42:24;;;;;;;8.82;3.75;;;;;;;23.33;42.26;99954.41;5101538;28;20032;-86
2023/09/30 06:44:50;;;;;;;11.70;4.53;;;;;;;23.44;40.96;99983.34;5091980;28;20024;-86
2023/09/30 06:47:16;;;;;;;6.78;3.22;;;;;;;;;;5092028;28;20066;-86
2023/09/30 06:49:41;;;;;;;10.43;3.90;;;;;;;23.28;41.36;99938.56;5091883;28;20506;-86
2023/09/30 06:52:07;;;;;;;11.32;3.97;;;;;;;23.78;40.81;99953.22;5071276;28;20064;-85
2023/09/30 06:54:33;;;;;;;5.75;3.42;;;;;;;23.80;41.12;99974.69;5092993;27;20421;-85
2023/09/30 06:56:58;;;;;;;11.38;4.72;;;;;;;23.78;40.22;99964.00;5082751;28;20031;-84
2023/09/30 06:59:25;;;;;;;7.63;3.10;;;;;;;24.05;38.99;99989.25;5096965;27;20036;-86
2023/09/30 07:01:51;;;;;;;10.65;4.22;;;;;;;24.09;39.19;99974.63;5085995;28;20028;-86
2023/09/30 07:04:16;;;;;;;4.47;3.25;;;;;;;24.51;38.60;100033.81;5106324;27;20073;-86
2023/09/30 07:06:42;;;;;;;7.25;3.00;;;;;;;24.79;37.75;100043.63;5099166;28;20393;-89
2023/09/30 07:09:11;;;;;;;12.40;3.55;;;;;;;24.77;37.61;99992.47;5098517;28;20020;-88
2023/09/30 07:11:38;;;;;;;11.57;4.05;;;;;;;24.89;35.92;99965.63;5084774;28;20467;-87
2023/09/30 07:14:04;;;;;;;5.35;2.80;;;;;;;25.13;37.60;99980.06;5091532;28;20047;-85
2023/09/30 07:16:32;;;;;;;5.10;3.15;;;;;;;25.46;35.83;99984.03;5094287;27;20028;-86
2023/09/30 07:18:58;;;;;;;7.88;3.17;;;;;;;25.58;36.37;99954.41;5090256;28;20554;-81
2023/09/30 07:21:23;;;;;;;11.85;3.28;;;;;;;25.90;35.29;99998.84;5096331;27;20023;-81
2023/09/30 07:23:49;;;;;;;3.75;2.33;;;;;;;25.48;34.71;100013.63;5121038;27;20024;-87
2023/09/30 07:26:14;;;;;;;6.80;2.92;;;;;;;25.66;35.37;99996.09;5111909;27;20028;-84
2023/09/30 07:28:40;;;;;;;5.65;3.35;;;;;;;26.13;33.81;100034.09;5108375;27;20702;-85
2023/09/30 07:31:06;;;;;;;10.63;3.90;;;;;;;26.46;33.51;100021.72;5109942;28;20102;-85
2023/09/30 07:33:32;;;;;;;6.47;3.15;;;;;;;26.39;33.34;99988.88;5108767;28;20409;-85
2023/09/30 07:35:57;;;;;;;6.05;3.63;;;;;;;26.31;33.32;99976.94;5109557;28;20034;-87
2023/09/30 07:38:26;;;;;;;5.70;3.33;;;;;;;26.53;32.89;99985.09;5110058;28;20034;-90
2023/09/30 07:40:51;;;;;;;7.50;3.08;;;;;;;26.27;32.08;99957.38;5111753;28;20089;-85
2023/09/30 07:43:20;;;;;;;13.15;3.10;;;;;;;26.23;32.51;99962.16;5111503;28;20039;-88
2023/09/30 07:45:45;;;;;;;5.00;2.88;;;;;;;26.01;32.85;99954.81;5093405;28;20027;-87
2023/09/30 07:48:17;;;;;;;7.70;2.65;;;;;;;25.85;32.14;99938.84;5111260;28;20462;-88
2023/09/30 07:50:42;;;;;;;18.25;5.03;;;;;;;26.01;32.92;99997.19;5109481;28;20032;-87
2023/09/30 07:53:08;;;;;;;5.13;3.40;;;;;;;25.83;32.88;99932.72;5109179;28;20965;-87
2023/09/30 07:55:37;;;;;;;7.18;3.03;;;;;;;25.85;32.48;99952.34;5109500;28;20027;-89
2023/09/30 07:58:03;;;;;;;5.85;3.17;;;;;;;25.97;32.05;99941.63;5110422;28;20028;-86
2023/09/30 08:00:29;;;;;;;5.72;2.35;;;;;;;26.36;31.88;99972.88;5092752;28;20105;-86
2023/09/30 08:02:54;;;;;;;5.22;3.63;;;;;;;26.50;31.28;99974.53;5110979;28;20057;-87
2023/09/30 08:05:20;;;;;;;7.72;2.97;;;;;;;26.61;31.38;99965.56;5110666;28;20619;-87
2023/09/30 08:07:46;;;;;;;6.47;3.38;;;;;;;26.69;31.83;99957.75;5094649;27;20543;-88
2023/09/30 08:10:16;;;;;;;10.65;2.22;;;;;;;26.91;31.00;100002.06;5116576;27;20027;-86
2023/09/30 08:12:45;;;;;;;7.95;3.22;;;;;;;26.36;30.74;99926.91;5120384;27;20028;-86
2023/09/30 08:15:14;;;;;;;12.88;3.15;;;;;;;26.82;32.05;99962.19;5089899;28;20040;-85
2023/09/30 08:17:40;;;;;;;4.53;2.50;;;;;;;26.93;31.52;99941.44;5108913;28;20088;-85
2023/09/30 08:20:06;;;;;;;6.40;2.55;;;;;;;27.38;30.49;99975.78;5092589;28;20505;-86
2023/09/30 08:22:38;;;;;;;10.63;4.70;;;;;;;27.45;30.53;99970.72;5100249;28;20447;-88
2023/09/30 08:25:11;;;;;;;8.43;3.38;;;;;;;27.75;30.30;99980.91;5096535;27;20405;-88
2023/09/30 08:27:38;;;;;;;4.85;2.40;;;;;;;27.82;29.57;100009.25;5101714;27;20039;-83
2023/09/30 08:30:05;;;;;;;8.98;2.72;;;;;;;27.02;29.70;99941.66;5070276;28;20032;-87
2023/09/30 08:32:37;;;;;;;7.85;2.67;;;;;;;27.35;29.41;99970.63;5088705;28;20021;-85
2023/09/30 08:35:05;;;;;;;4.70;2.63;;;;;;;27.48;30.54;99955.09;5089187;28;20036;-85
2023/09/30 08:37:31;;;;;;;5.82;2.15;;;;;;;27.32;29.70;99949.22;5088948;28;20514;-86
2023/09/30 08:39:57;;;;;;;11.95;4.05;;;;;;;27.85;30.00;99957.50;5089243;28;20165;-88
2023/09/30 08:42:24;;;;;;;5.47;2.95;;;;;;;28.14;28.98;99991.31;5088836;28;20028;-85
2023/09/30 08:44:54;;;;;;;4.18;2.55;;;;;;;27.37;28.41;99962.38;5089328;28;20036;-86
2023/09/30 08:47:20;;;;;;;6.47;2.60;;;;;;;27.36;29.38;99980.47;5108097;28;20027;-85
2023/09/30 08:49:50;;;;;;;3.80;2.38;;;;;;;27.33;29.70;99948.22;5092104;28;20044;-87
2023/09/30 08:52:16;;;;;;;4.55;2.65;;;;;;;27.60;29.63;99974.03;5109817;28;20023;-85
2023/09/30 08:54:42;;;;;;;5.80;3.20;;;;;;;27.64;29.92;99943.84;5110055;28;20054;-85
2023/09/30 08:57:10;;;;;;;5.45;2.40;;;;;;;27.77;28.63;99961.81;5091691;28;20031;-86
2023/09/30 08:59:38;;;;;;;8.70;3.20;;;;;;;27.35;28.05;99939.97;5110129;28;20405;-86
2023/09/30 09:02:09;;;;;;;3.85;2.08;;;;;;;27.27;29.15;99922.47;5110403;28;20034;-86
2023/09/30 09:04:36;;;;;;;5.47;2.35;;;;;;;27.47;29.44;99930.84;5110203;28;20031;-86
2023/09/30 09:07:01;;;;;;;2.85;1.83;;;;;;;27.73;29.61;99947.66;5110224;28;20024;-84
2023/09/30 09:09:27;;;;;;;5.93;2.35;;;;;;;27.58;29.03;99952.50;5109790;28;20509;-85
2023/09/30 09:11:52;;;;;;;6.90;2.65;;;;;;;27.76;27.65;99954.66;5110208;28;20023;-86
2023/09/30 09:14:36;;;;;;;6.60;2.88;;;;;;;27.47;27.46;99922.72;5109877;28;20038;-85
2023/09/30 09:17:02;;;;;;;3.92;2.20;;;;;;;27.32;28.50;99941.09;5092101;28;20052;-86
2023/09/30 09:19:27;;;;;;;4.65;2.30;;;;;;;27.59;28.50;99928.97;5110035;28;20066;-86
2023/09/30 09:22:06;;;;;;;9.65;2.80;;;;;;;28.04;28.92;99967.69;5109609;28;20031;-88
2023/09/30 09:24:36;;;;;;;4.78;2.53;;;;;;;28.01;28.30;99924.56;5110001;28;20081;-86
2023/09/30 09:27:09;;;;;;;3.30;1.95;;;;;;;27.92;27.97;99956.97;5109783;28;20059;-86
2023/09/30 09:29:39;;;;;;;4.38;2.28;;;;;;;27.95;27.89;99946.75;5110420;28;20032;-88
2023/09/30 09:32:15;;;;;;;5.80;3.53;;;;;;;27.81;28.46;99952.44;5109793;28;20093;-88
2023/09/30 09:34:43;;;;;;;5.15;2.45;;;;;;;27.88;28.30;99926.53;5110791;28;20058;-86
2023/09/30 09:37:22;;;;;;;11.40;2.85;;;;;;;27.72;28.50;99932.38;5095595;28;20028;-87
2023/09/30 09:40:22;;;;;;;6.72;3.75;;;;;;;27.81;28.10;99972.28;5113913;28;20141;-86
2023/09/30 09:42:50;;;;;;;6.53;3.35;;;;;;;27.79;27.89;99902.91;5113257;28;20028;-85
2023/09/30 09:45:16;;;;;;;4.78;2.85;;;;;;;28.28;26.98;99973.88;5113855;28;20028;-85
2023/09/30 09:47:42;;;;;;;7.72;2.95;;;;;;;28.13;27.40;99913.66;5113594;28;20027;-85
2023/09/30 09:50:10;;;;;;;6.03;2.53;;;;;;;27.91;27.40;99890.19;5113782;28;20499;-85
2023/09/30 09:52:37;;;;;;;5.80;2.75;;;;;;;28.09;27.30;99907.63;5113357;28;20215;-84
2023/09/30 09:55:04;;;;;;;4.18;2.30;;;;;;;28.66;26.90;99961.63;5113230;28;20050;-88
2023/09/30 09:57:31;;;;;;;5.28;2.70;;;;;;;28.03;27.64;99900.03;5112961;28;20116;-85
2023/09/30 09:59:59;;;;;;;6.15;3.78;;;;;;;27.78;26.87;99883.09;5114043;28;20172;-86
2023/09/30 10:02:27;;;;;;;32.45;12.15;;;;;;;27.77;26.20;99875.09;5113820;28;20110;-89
2023/09/30 10:05:07;;;;;;;;;;;;;;;;;;;;;
2023/09/30 10:07:44;;;;;;;10.80;3.30;;;;;;;28.09;25.63;99888.66;5112866;28;20412;-89
2023/09/30 10:10:16;;;;;;;11.07;4.07;;;;;;;27.99;26.90;99883.16;5112679;28;20512;-91
2023/09/30 10:12:42;;;;;;;5.35;2.72;;;;;;;28.26;27.13;99881.78;5113061;28;20035;-88
2023/09/30 10:15:39;;;;;;;;;;;;;;;;;;;;;
2023/09/30 10:18:36;;;;;;;14.27;3.75;;;;;;;28.57;25.03;99846.56;5111828;28;20044;-91
2023/09/30 10:21:33;;;;;;;6.03;3.42;;;;;;;28.85;25.14;99865.88;5029882;28;20859;-88
2023/09/30 10:24:29;;;;;;;6.50;3.97;;;;;;;29.12;26.20;99916.84;5030155;28;20046;-89
2023/09/30 10:27:22;;;;;;;11.25;4.25;;;;;;;28.99;25.33;99911.63;5030041;28;20400;-91
2023/09/30 10:29:58;;;;;;;3.10;2.17;;;;;;;28.30;25.34;99860.69;5030248;28;20045;-91
2023/09/30 10:32:57;;;;;;;5.85;2.85;;;;;;;28.93;26.37;99899.47;5027504;28;20041;-90
2023/09/30 10:35:32;;;;;;;6.50;3.30;;;;;;;29.27;25.50;99915.50;5030070;28;20068;-87
2023/09/30 10:38:49;;;;;;;7.80;3.42;;;;;;;28.91;25.30;99895.19;5029446;28;20040;-90
2023/09/30 10:42:14;;;;;;;6.55;2.70;;;;;;;28.59;24.08;99839.16;4932061;29;20035;-91
2023/09/30 10:44:40;;;;;;;5.05;2.13;;;;;;;28.99;24.46;99914.34;4913447;29;20079;-86
2023/09/30 10:47:21;;;;;;;6.88;2.50;;;;;;;29.46;23.91;99892.09;4912835;29;20040;-86
2023/09/30 10:49:55;;;;;;;3.60;2.10;;;;;;;28.97;23.79;99815.91;4913325;29;20036;-87
2023/09/30 10:52:29;;;;;;;5.82;2.90;;;;;;;28.96;23.99;99863.03;4980708;28;20039;-86
2023/09/30 10:55:01;;;;;;;6.60;3.45;;;;;;;28.79;24.14;99818.41;4989756;28;20432;-85
2023/09/30 10:57:30;;;;;;;4.90;2.60;;;;;;;29.13;24.30;99823.50;4990403;28;20042;-85
2023/09/30 11:00:14;;;;;;;10.25;3.15;;;;;;;29.02;23.57;99831.78;4990044;28;20034;-85
2023/09/30 11:02:52;;;;;;;4.43;2.47;;;;;;;29.05;23.90;99807.06;4990183;28;20050;-87
2023/09/30 11:05:20;;;;;;;19.38;2.78;;;;;;;29.41;23.42;99849.06;4990357;28;20042;-86
2023/09/30 11:07:48;;;;;;;10.88;2.28;;;;;;;29.28;22.79;99852.00;4989589;28;20069;-87
2023/09/30 11:10:18;;;;;;;6.00;2.60;;;;;;;29.38;22.81;99843.91;4990019;28;20112;-86
2023/09/30 11:12:57;;;;;;;5.05;2.00;;;;;;;29.33;22.90;99805.41;4989290;28;20489;-86
2023/09/30 11:15:23;;;;;;;10.52;2.38;;;;;;;29.60;22.81;99823.75;4989831;28;20053;-87
2023/09/30 11:17:50;;;;;;;9.05;2.58;;;;;;;29.66;22.14;99819.63;5025020;28;20040;-86
2023/09/30 11:20:18;;;;;;;4.45;2.30;;;;;;;29.57;22.32;99836.78;5069000;28;20032;-84
2023/09/30 11:22:45;;;;;;;5.40;2.83;;;;;;;29.46;23.04;99789.72;5068104;28;20123;-86
2023/09/30 11:25:41;;;;;;;6.68;2.55;;;;;;;29.36;22.62;99807.00;5101233;28;20039;-87
2023/09/30 11:28:17;;;;;;;4.72;2.65;;;;;;;29.30;23.22;99808.41;5092764;28;20101;-87
2023/09/30 11:31:01;;;;;;;12.57;2.58;;;;;;;29.09;22.98;99779.47;5111657;28;20037;-85
2023/09/30 11:33:27;;;;;;;;;;;;;;;29.65;23.51;99851.34;5111539;28;20587;-84
2023/09/30 11:36:11;;;;;;;5.80;2.10;;;;;;;29.55;23.56;99827.88;5111559;28;20025;-85
2023/09/30 11:38:36;;;;;;;4.93;2.28;;;;;;;29.72;23.55;99813.59;5111773;28;20111;-86
2023/09/30 11:41:06;;;;;;;13.70;3.00;;;;;;;29.43;22.75;99759.25;5111451;28;20106;-88
2023/09/30 11:43:33;;;;;;;3.63;2.10;;;;;;;29.53;22.56;99794.56;5111200;28;20059;-87
2023/09/30 11:46:10;;;;;;;3.30;1.92;;;;;;;29.58;22.13;99759.66;5111325;28;20040;-87
2023/09/30 11:48:37;;;;;;;5.45;2.65;;;;;;;29.80;22.52;99792.00;5111311;28;20386;-89
2023/09/30 11:51:03;;;;;;;8.05;3.17;;;;;;;29.65;22.71;99793.41;5111769;28;20051;-85
2023/09/30 11:53:35;;;;;;;3.67;2.17;;;;;;;29.65;22.15;99796.13;5110617;28;20093;-85
2023/09/30 11:56:04;;;;;;;5.60;2.47;;;;;;;29.42;22.81;99762.97;5111554;28;20413;-87
2023/09/30 11:58:32;;;;;;;19.65;3.55;;;;;;;29.73;21.70;99776.41;5110008;28;20118;-86
2023/09/30 12:01:00;;;;;;;4.80;2.30;;;;;;;29.79;22.03;99782.09;5111831;28;20463;-86
2023/09/30 12:03:27;;;;;;;10.48;3.28;;;;;;;29.36;22.15;99761.66;5110946;28;20042;-87
2023/09/30 12:05:55;;;;;;;3.83;2.50;;;;;;;29.88;21.91;99793.16;5092724;28;20401;-86
2023/09/30 12:08:23;;;;;;;7.95;2.45;;;;;;;29.70;21.51;99804.72;5110442;28;20114;-87
2023/09/30 12:10:49;;;;;;;4.90;2.33;;;;;;;29.76;22.34;99809.56;5110599;28;20040;-87
2023/09/30 12:13:15;;;;;;;3.63;2.20;;;;;;;29.42;22.45;99752.94;5110316;28;20027;-89
2023/09/30 12:15:44;;;;;;;4.03;2.28;;;;;;;29.94;22.26;99798.03;5110688;28;20037;-90
2023/09/30 12:18:10;;;;;;;5.57;3.00;;;;;;;29.53;22.07;99742.94;5074779;28;20054;-88
2023/09/30 12:20:36;;;;;;;5.85;2.40;;;;;;;29.46;22.04;99735.38;5120620;27;20035;-89
2023/09/30 12:23:01;;;;;;;7.07;2.92;;;;;;;29.62;21.94;99751.06;5120020;27;20043;-87
2023/09/30 12:28:49;;;;;;;6.50;2.72;;;;;;;29.36;22.24;99734.50;5104432;28;20034;-88
2023/09/30 12:31:15;;;;;;;3.47;2.45;;;;;;;29.44;21.67;99720.19;5109940;28;20028;-87